Time;durP1;ratioP1;P1;durP2;ratioP2;P2;SDS_P1;SDS_P2;PMS_P1;PMS_P2;Temp;Humidity;BMP_temperature;BMP_pressure;BME280_temperature;BME280_humidity;BME280_pressure;Samples;Min_cycle;Max_cycle;Signal;HPM_P1;HPM_P2
2022/04/05 00:00:14;;;;;;;9.40;3.83;;;25.20;99.90;;;;;;5073673;28;20200;-66
2022/04/05 00:02:41;;;;;;;6.93;3.73;;;25.60;99.90;;;;;;5073735;28;20199;-67
2022/04/05 00:05:09;;;;;;;6.37;3.60;;;25.80;99.90;;;;;;5073642;28;20588;-67
2022/04/05 00:07:36;;;;;;;4.13;3.30;;;25.80;99.90;;;;;;5073703;28;20195;-67
2022/04/05 00:10:04;;;;;;;9.50;2.83;;;25.60;99.90;;;;;;5075112;28;20188;-67
2022/04/05 00:12:31;;;;;;;6.40;3.20;;;24.90;99.90;;;;;;5075633;28;20176;-66
2022/04/05 00:14:58;;;;;;;6.00;3.53;;;25.10;99.90;;;;;;5076358;28;20764;-65
2022/04/05 00:17:26;;;;;;;5.10;3.27;;;25.20;99.90;;;;;;5076001;28;20649;-68
2022/04/05 00:19:53;;;;;;;10.73;4.13;;;25.90;99.90;;;;;;5077971;28;20266;-67
2022/04/05 00:22:21;;;;;;;4.63;3.33;;;26.30;99.90;;;;;;5097041;28;20547;-65
2022/04/05 00:24:48;;;;;;;3.50;2.70;;;25.90;99.90;;;;;;5096596;28;20191;-67
2022/04/05 00:27:15;;;;;;;5.37;2.93;;;26.20;99.90;;;;;;5093694;28;20179;-67
2022/04/05 00:29:42;;;;;;;6.93;3.10;;;25.70;99.90;;;;;;5093466;28;20183;-66
2022/04/05 00:32:10;;;;;;;4.87;2.87;;;26.20;99.90;;;;;;5093341;28;20667;-66
2022/04/05 00:34:37;;;;;;;10.10;3.53;;;26.50;99.90;;;;;;5093399;28;20171;-66
2022/04/05 00:37:05;;;;;;;6.90;3.00;;;26.80;99.90;;;;;;5074161;28;20184;-67
2022/04/05 00:39:32;;;;;;;5.37;3.30;;;27.10;99.90;;;;;;5072955;28;20176;-67
2022/04/05 00:42:00;;;;;;;7.53;3.80;;;26.80;99.90;;;;;;5072662;28;20350;-67
2022/04/05 00:44:27;;;;;;;4.00;2.77;;;27.50;99.90;;;;;;5071483;28;20219;-65
2022/04/05 00:46:55;;;;;;;4.37;2.87;;;27.00;99.90;;;;;;5072531;28;20263;-66
2022/04/05 00:49:31;;;;;;;3.90;2.80;;;27.20;99.90;;;;;;5071825;28;20665;-66
2022/04/05 00:51:59;;;;;;;5.80;3.43;;;27.50;99.90;;;;;;5072847;28;20175;-67
2022/04/05 00:54:28;;;;;;;7.80;3.95;;;27.60;99.90;;;;;;5072516;28;20199;-67
2022/04/05 00:56:57;;;;;;;4.87;3.57;;;27.30;99.90;;;;;;5070032;28;20548;-67
2022/04/05 00:59:28;;;;;;;3.33;2.73;;;27.70;99.90;;;;;;5052671;28;20219;-67
2022/04/05 01:01:56;;;;;;;3.70;2.77;;;27.10;99.90;;;;;;5052730;28;20699;-67
2022/04/05 01:04:25;;;;;;;8.47;3.20;;;27.90;99.90;;;;;;5052559;28;20219;-67
2022/04/05 01:06:54;;;;;;;4.93;2.70;;;28.60;99.90;;;;;;5051080;28;20184;-67
2022/04/05 01:09:21;;;;;;;7.57;3.03;;;27.80;99.90;;;;;;5051362;28;20279;-67
2022/04/05 01:11:49;;;;;;;3.70;3.23;;;27.80;99.90;;;;;;5053102;28;20670;-67
2022/04/05 01:14:16;;;;;;;3.55;3.03;;;27.70;99.90;;;;;;5066049;28;20227;-67
2022/04/05 01:16:44;;;;;;;8.33;2.30;;;27.40;99.90;;;;;;5075491;28;20216;-67
2022/04/05 01:19:11;;;;;;;5.07;2.33;;;28.20;99.90;;;;;;5071028;28;20187;-67
2022/04/05 01:21:38;;;;;;;2.85;2.28;;;28.50;99.90;;;;;;5059341;28;20227;-66
2022/04/05 01:24:15;;;;;;;3.33;2.20;;;28.00;99.90;;;;;;5072141;28;20215;-67
2022/04/05 01:26:51;;;;;;;6.00;2.47;;;28.60;99.90;;;;;;5071419;28;20262;-67
2022/04/05 01:29:21;;;;;;;3.27;2.60;;;28.00;99.90;;;;;;5071348;28;20582;-67
2022/04/05 01:31:54;;;;;;;3.07;2.27;;;28.60;99.90;;;;;;5071580;28;20180;-68
2022/04/05 01:34:24;;;;;;;3.92;2.38;;;29.10;99.90;;;;;;5072041;28;20188;-66
2022/04/05 01:36:57;;;;;;;3.33;2.33;;;28.70;99.90;;;;;;5070829;28;20236;-66
2022/04/05 01:39:27;;;;;;;4.45;2.10;;;28.10;99.90;;;;;;5071325;28;20184;-66
2022/04/05 01:41:59;;;;;;;3.85;2.17;;;29.00;99.90;;;;;;5071858;28;20225;-67
2022/04/05 01:44:28;;;;;;;2.75;2.00;;;29.00;99.90;;;;;;5071663;28;20203;-66
2022/04/05 01:46:56;;;;;;;4.35;2.15;;;29.10;99.90;;;;;;5061891;28;20645;-67
2022/04/05 01:49:23;;;;;;;3.60;2.10;;;28.90;99.90;;;;;;5051841;28;20191;-68
2022/04/05 01:51:51;;;;;;;4.82;2.30;;;29.40;99.90;;;;;;5052029;28;20198;-67
2022/04/05 01:54:19;;;;;;;5.63;2.50;;;30.10;99.90;;;;;;5069610;28;20236;-68
2022/04/05 01:56:52;;;;;;;3.53;2.28;;;30.50;99.90;;;;;;5063314;28;20271;-68
2022/04/05 01:59:22;;;;;;;2.67;1.95;;;30.40;99.90;;;;;;5051196;28;20188;-67
2022/04/05 02:01:50;;;;;;;2.65;1.90;;;29.90;99.90;;;;;;5053758;28;20295;-66
2022/04/05 02:04:18;;;;;;;4.35;2.05;;;29.50;99.90;;;;;;5071775;28;20230;-68
2022/04/05 02:06:46;;;;;;;3.88;2.30;;;30.00;99.90;;;;;;5071697;28;20575;-67
2022/04/05 02:09:15;;;;;;;3.80;1.98;;;30.30;99.90;;;;;;5071643;28;20312;-68
2022/04/05 02:11:47;;;;;;;5.28;2.25;;;30.60;99.90;;;;;;5069022;28;20641;-68
2022/04/05 02:14:16;;;;;;;4.07;1.88;;;30.30;99.90;;;;;;5078109;28;20354;-68
2022/04/05 02:16:43;;;;;;;2.17;1.70;;;30.50;99.90;;;;;;5071474;28;20172;-67
2022/04/05 02:19:11;;;;;;;3.15;2.13;;;30.60;99.90;;;;;;5071224;28;20210;-67
2022/04/05 02:21:38;;;;;;;3.75;2.10;;;30.10;98.80;;;;;;5063025;28;20535;-66
2022/04/05 02:24:06;;;;;;;2.97;1.95;;;30.70;99.90;;;;;;5068303;28;20380;-67
2022/04/05 02:26:33;;;;;;;2.25;1.88;;;31.30;99.90;;;;;;5071527;28;20180;-68
2022/04/05 02:29:00;;;;;;;2.88;1.50;;;31.80;99.90;;;;;;5071594;28;20176;-68
2022/04/05 02:31:28;;;;;;;2.20;1.35;;;31.30;97.50;;;;;;5070394;28;20179;-69
2022/04/05 02:33:58;;;;;;;3.70;1.60;;;30.90;98.30;;;;;;5071370;28;20195;-66
2022/04/05 02:36:26;;;;;;;2.03;1.50;;;30.90;99.90;;;;;;5071194;28;20232;-67
2022/04/05 02:38:53;;;;;;;2.88;1.70;;;31.00;99.90;;;;;;5071317;28;20190;-68
2022/04/05 02:41:20;;;;;;;1.77;1.45;;;31.30;98.40;;;;;;5071429;28;20277;-67
2022/04/05 02:43:48;;;;;;;2.63;1.70;;;31.50;95.40;;;;;;5071511;28;20219;-68
2022/04/05 02:46:15;;;;;;;5.45;1.50;;;31.80;93.90;;;;;;5071435;28;20172;-67
2022/04/05 02:48:46;;;;;;;3.42;1.70;;;31.60;97.90;;;;;;5071001;28;20210;-67
2022/04/05 02:51:14;;;;;;;4.50;1.60;;;31.50;94.30;;;;;;5068039;28;20229;-67
2022/04/05 02:53:42;;;;;;;3.15;1.50;;;30.80;96.10;;;;;;5071435;28;20172;-68
2022/04/05 02:56:10;;;;;;;3.80;1.52;;;31.00;98.60;;;;;;5071011;28;20180;-68
2022/04/05 02:58:38;;;;;;;2.00;1.60;;;31.20;96.20;;;;;;5071301;28;20214;-67
2022/04/05 03:01:06;;;;;;;1.65;1.55;;;31.00;96.70;;;;;;5071248;28;20389;-69
2022/04/05 03:03:34;;;;;;;2.08;1.67;;;31.40;96.80;;;;;;5071068;28;20278;-67
2022/04/05 03:06:02;;;;;;;1.80;1.38;;;31.20;95.30;;;;;;5070688;28;20222;-69
2022/04/05 03:08:30;;;;;;;1.88;1.48;;;31.50;95.20;;;;;;5071295;28;20172;-68
2022/04/05 03:10:57;;;;;;;2.05;1.70;;;31.60;90.20;;;;;;5071556;28;20176;-68
2022/04/05 03:13:25;;;;;;;6.90;1.73;;;31.80;95.20;;;;;;5074256;28;20214;-69
2022/04/05 03:15:52;;;;;;;2.70;1.80;;;31.50;95.50;;;;;;5074407;28;20192;-67
2022/04/05 03:18:19;;;;;;;2.03;1.35;;;31.20;95.50;;;;;;5071562;28;20187;-67
2022/04/05 03:20:46;;;;;;;2.50;1.67;;;31.40;96.60;;;;;;5072582;28;20645;-69
2022/04/05 03:23:14;;;;;;;2.75;1.67;;;31.20;93.40;;;;;;5073927;28;20256;-68
2022/04/05 03:25:41;;;;;;;2.65;1.40;;;31.20;93.90;;;;;;5071433;28;20186;-68
2022/04/05 03:28:08;;;;;;;5.32;1.73;;;31.40;93.20;;;;;;5074116;28;20183;-67
2022/04/05 03:30:36;;;;;;;4.40;1.75;;;31.20;98.80;;;;;;5073060;28;20282;-68
2022/04/05 03:33:03;;;;;;;4.63;1.63;;;31.50;98.40;;;;;;5073030;28;20267;-67
2022/04/05 03:35:31;;;;;;;1.67;1.33;;;31.80;94.90;;;;;;5073223;28;20176;-67
2022/04/05 03:37:59;;;;;;;3.35;1.55;;;32.10;97.80;;;;;;5072287;28;20215;-69
2022/04/05 03:40:27;;;;;;;2.88;1.20;;;31.40;99.40;;;;;;5072625;28;20237;-68
2022/04/05 03:42:54;;;;;;;3.08;1.50;;;31.60;99.90;;;;;;5072820;28;20273;-68
2022/04/05 03:45:22;;;;;;;6.57;1.40;;;32.10;99.90;;;;;;5073721;28;20259;-67
2022/04/05 03:47:49;;;;;;;3.65;1.10;;;31.70;99.00;;;;;;5072351;28;20184;-68
2022/04/05 03:50:18;;;;;;;4.38;1.40;;;31.50;99.90;;;;;;5074084;28;20191;-68
2022/04/05 03:52:45;;;;;;;2.08;1.40;;;31.50;99.90;;;;;;5073316;28;20236;-68
2022/04/05 03:55:13;;;;;;;2.75;1.13;;;31.90;99.90;;;;;;5073305;28;20187;-68
2022/04/05 03:57:41;;;;;;;3.35;1.30;;;31.30;99.90;;;;;;5073678;28;20598;-68
2022/04/05 04:00:09;;;;;;;8.85;1.65;;;30.80;99.90;;;;;;5073626;28;20229;-67
2022/04/05 04:02:40;;;;;;;6.57;1.85;;;30.10;99.90;;;;;;5073610;28;20199;-68
2022/04/05 04:05:08;;;;;;;9.85;1.80;;;30.20;99.90;;;;;;5072256;28;20218;-68
2022/04/05 04:07:39;;;;;;;10.80;2.03;;;30.30;99.90;;;;;;5073795;28;20172;-67
2022/04/05 04:10:08;;;;;;;8.50;1.80;;;30.10;99.90;;;;;;5071237;28;20180;-67
2022/04/05 04:12:35;;;;;;;5.53;2.00;;;29.20;99.90;;;;;;5073512;28;20192;-67
2022/04/05 04:15:03;;;;;;;5.23;1.50;;;28.40;99.90;;;;;;5090129;28;20231;-67
2022/04/05 04:17:30;;;;;;;3.83;1.60;;;27.90;99.90;;;;;;5077513;28;20186;-67
2022/04/05 04:19:58;;;;;;;6.40;1.47;;;27.40;99.90;;;;;;5062444;28;20589;-68
2022/04/05 04:22:26;;;;;;;3.70;1.63;;;27.00;99.90;;;;;;5072275;28;20590;-68
2022/04/05 04:24:56;;;;;;;6.63;1.67;;;26.80;99.90;;;;;;5073290;28;20188;-68
2022/04/05 04:27:24;;;;;;;2.97;1.37;;;27.30;99.90;;;;;;5073225;28;20168;-68
2022/04/05 04:29:52;;;;;;;5.50;2.13;;;27.50;99.90;;;;;;5071930;28;20186;-69
2022/04/05 04:32:20;;;;;;;4.23;1.83;;;27.50;99.90;;;;;;5073225;28;20176;-68
2022/04/05 04:34:47;;;;;;;4.20;1.30;;;27.10;99.90;;;;;;5079950;28;20656;-69
2022/04/05 04:37:15;;;;;;;3.53;1.50;;;26.90;99.90;;;;;;5093113;28;20176;-67
2022/04/05 04:39:42;;;;;;;7.13;1.70;;;27.10;99.90;;;;;;5093357;28;20178;-68
2022/04/05 04:42:12;;;;;;;8.57;1.87;;;27.30;99.90;;;;;;5093185;28;20265;-68
2022/04/05 04:44:40;;;;;;;5.57;1.70;;;27.80;99.90;;;;;;5093154;28;20223;-68
2022/04/05 04:47:08;;;;;;;5.83;1.70;;;28.10;99.90;;;;;;5093017;28;20246;-68
2022/04/05 04:49:35;;;;;;;5.77;1.67;;;27.70;99.90;;;;;;5093097;28;20645;-69
2022/04/05 04:52:04;;;;;;;5.23;1.73;;;27.20;99.90;;;;;;5093033;28;20167;-66
2022/04/05 04:54:31;;;;;;;4.73;1.50;;;27.10;99.90;;;;;;5092968;28;20653;-68
2022/04/05 04:56:59;;;;;;;6.63;1.77;;;26.80;99.90;;;;;;5092870;28;20657;-68
2022/04/05 04:59:26;;;;;;;7.83;1.70;;;26.50;99.90;;;;;;5092786;28;20659;-68
2022/04/05 05:01:53;;;;;;;7.23;1.73;;;26.60;99.90;;;;;;5092900;28;20171;-66
2022/04/05 05:04:21;;;;;;;7.30;2.13;;;26.90;99.90;;;;;;5092282;28;20248;-68
2022/04/05 05:06:48;;;;;;;7.77;2.07;;;27.20;99.90;;;;;;5072618;28;20172;-69
2022/04/05 05:09:16;;;;;;;7.50;1.53;;;27.40;99.90;;;;;;5072445;28;20686;-69
2022/04/05 05:11:44;;;;;;;5.13;1.57;;;27.40;99.90;;;;;;5073132;28;20172;-68
2022/04/05 05:14:12;;;;;;;8.43;1.83;;;27.30;99.90;;;;;;5072550;28;20254;-69
2022/04/05 05:16:39;;;;;;;14.37;1.87;;;27.30;99.90;;;;;;5071453;28;20203;-68
2022/04/05 05:19:06;;;;;;;7.03;1.80;;;27.30;99.90;;;;;;5071901;28;20176;-69
2022/04/05 05:21:34;;;;;;;10.03;2.13;;;27.30;99.90;;;;;;5071872;28;20183;-69
2022/04/05 05:24:01;;;;;;;7.90;1.60;;;27.10;99.90;;;;;;5072270;28;20223;-68
2022/04/05 05:26:28;;;;;;;8.03;2.23;;;27.00;99.90;;;;;;5072239;28;20183;-68
2022/04/05 05:28:55;;;;;;;9.87;2.10;;;26.60;99.90;;;;;;5072126;28;20181;-68
2022/04/05 05:31:23;;;;;;;8.97;1.83;;;26.70;99.90;;;;;;5071798;28;20185;-68
2022/04/05 05:33:50;;;;;;;12.23;1.77;;;26.70;99.90;;;;;;5071605;28;20717;-68
2022/04/05 05:36:18;;;;;;;7.43;1.73;;;26.70;99.90;;;;;;5072003;28;20176;-69
2022/04/05 05:38:45;;;;;;;10.67;1.80;;;26.60;99.90;;;;;;5070635;28;20233;-67
2022/04/05 05:41:13;;;;;;;6.43;1.70;;;26.40;99.90;;;;;;5069139;28;20554;-69
2022/04/05 05:43:41;;;;;;;5.60;1.47;;;26.30;99.90;;;;;;5063577;28;20217;-69
2022/04/05 05:46:08;;;;;;;11.37;1.83;;;26.10;99.90;;;;;;5071878;28;20192;-69
2022/04/05 05:48:35;;;;;;;7.33;1.90;;;26.20;99.90;;;;;;5071869;28;20175;-68
2022/04/05 05:51:03;;;;;;;8.37;1.77;;;26.10;99.90;;;;;;5071757;28;20595;-68
2022/04/05 05:53:30;;;;;;;7.53;1.50;;;26.40;99.90;;;;;;5070597;28;20274;-68
2022/04/05 05:55:57;;;;;;;6.53;1.87;;;26.30;99.90;;;;;;5070505;28;20274;-68
2022/04/05 05:58:25;;;;;;;6.40;1.40;;;26.40;99.90;;;;;;5071744;28;20187;-67
2022/04/05 06:00:52;;;;;;;7.87;1.73;;;26.50;99.90;;;;;;5070536;28;20172;-68
2022/04/05 06:03:20;;;;;;;2.10;1.10;;;26.60;99.90;;;;;;5073711;28;20296;-68
2022/04/05 06:05:47;;;;;;;3.80;1.37;;;26.70;99.90;;;;;;5085434;28;20176;-69
2022/04/05 06:08:17;;;;;;;5.07;1.50;;;26.60;99.90;;;;;;5071409;28;20195;-68
2022/04/05 06:10:44;;;;;;;9.17;2.37;;;26.30;99.90;;;;;;5070976;28;20192;-69
2022/04/05 06:13:12;;;;;;;6.03;1.37;;;26.30;99.90;;;;;;5071574;28;20180;-69
2022/04/05 06:15:39;;;;;;;4.40;1.57;;;26.10;99.90;;;;;;5071645;28;20291;-69
2022/04/05 06:18:07;;;;;;;7.10;1.97;;;26.30;99.90;;;;;;5053681;28;20291;-68
2022/04/05 06:20:34;;;;;;;8.47;1.90;;;26.30;99.90;;;;;;5071428;28;20255;-68
2022/04/05 06:23:04;;;;;;;7.37;1.57;;;26.20;99.90;;;;;;5071224;28;20688;-69
2022/04/05 06:25:37;;;;;;;9.57;1.97;;;26.10;99.90;;;;;;5070110;28;20194;-69
2022/04/05 06:28:07;;;;;;;10.40;2.97;;;26.00;99.90;;;;;;5071700;28;20180;-69
2022/04/05 06:30:37;;;;;;;6.67;2.20;;;25.90;99.90;;;;;;5070776;28;20187;-69
2022/04/05 06:33:14;;;;;;;8.07;1.83;;;25.40;99.90;;;;;;5070136;28;20184;-70
2022/04/05 06:35:53;;;;;;;7.20;1.80;;;25.20;99.90;;;;;;5071314;28;20637;-69
2022/04/05 06:38:20;;;;;;;5.23;1.77;;;25.00;99.90;;;;;;5071435;28;20523;-69
2022/04/05 06:40:48;;;;;;;4.80;1.33;;;25.00;99.90;;;;;;5071347;28;20172;-68
2022/04/05 06:43:20;;;;;;;8.97;1.87;;;25.00;99.90;;;;;;5071397;28;20302;-69
2022/04/05 06:45:47;;;;;;;12.20;1.60;;;24.70;99.90;;;;;;5071674;28;20212;-68
2022/04/05 06:48:15;;;;;;;9.37;1.87;;;24.60;99.90;;;;;;5074116;28;20187;-69
2022/04/05 06:50:43;;;;;;;10.10;1.73;;;24.60;99.90;;;;;;5075329;28;20215;-71
2022/04/05 06:53:11;;;;;;;5.47;1.57;;;24.90;99.90;;;;;;5074594;28;20195;-70
2022/04/05 06:55:39;;;;;;;12.60;2.40;;;24.80;99.90;;;;;;5074750;28;20195;-70
2022/04/05 06:58:08;;;;;;;7.63;1.77;;;24.70;99.90;;;;;;5074873;28;20195;-68
2022/04/05 07:00:37;;;;;;;8.47;1.83;;;24.80;99.90;;;;;;5073919;28;20199;-69
2022/04/05 07:03:05;;;;;;;12.40;1.90;;;24.60;99.90;;;;;;5074288;28;20215;-66
2022/04/05 07:05:33;;;;;;;8.67;2.07;;;24.60;99.90;;;;;;5074579;28;20180;-69
2022/04/05 07:08:01;;;;;;;6.83;1.60;;;24.60;99.90;;;;;;5073575;28;20180;-68
2022/04/05 07:10:28;;;;;;;4.53;1.63;;;24.40;99.90;;;;;;5074863;28;20180;-69
2022/04/05 07:12:56;;;;;;;9.37;2.00;;;24.00;99.90;;;;;;5074483;28;20172;-68
2022/04/05 07:15:23;;;;;;;7.03;1.87;;;23.60;99.90;;;;;;5074614;28;20318;-68
2022/04/05 07:17:50;;;;;;;6.47;1.73;;;23.50;99.90;;;;;;5074331;28;20238;-69
2022/04/05 07:20:18;;;;;;;5.63;1.93;;;23.20;99.90;;;;;;5074716;28;20175;-68
2022/04/05 07:22:48;;;;;;;9.33;1.90;;;23.00;99.90;;;;;;5074510;28;20190;-69
2022/04/05 07:25:18;;;;;;;7.13;1.90;;;22.90;99.90;;;;;;5074494;28;20548;-68
2022/04/05 07:27:46;;;;;;;12.73;2.30;;;22.70;99.90;;;;;;5073527;28;20175;-68
2022/04/05 07:30:13;;;;;;;9.37;1.90;;;22.60;99.90;;;;;;5074383;28;20183;-67
2022/04/05 07:32:45;;;;;;;9.47;1.80;;;22.50;99.90;;;;;;5074651;28;20215;-66
2022/04/05 07:35:14;;;;;;;6.40;1.97;;;22.50;99.90;;;;;;5074297;28;20237;-67
2022/04/05 07:37:42;;;;;;;4.47;1.70;;;22.30;99.90;;;;;;5074204;28;20168;-67
2022/04/05 07:40:13;;;;;;;9.27;2.00;;;22.30;99.90;;;;;;5074445;28;20172;-67
2022/04/05 07:42:41;;;;;;;12.07;2.20;;;22.20;99.90;;;;;;5073818;28;20183;-68
2022/04/05 07:45:09;;;;;;;10.23;2.40;;;22.20;99.90;;;;;;5074061;28;20192;-67
2022/04/05 07:47:38;;;;;;;8.13;2.20;;;22.20;99.90;;;;;;5073713;28;20684;-66
2022/04/05 07:50:06;;;;;;;5.50;1.83;;;22.20;99.90;;;;;;5072485;28;20188;-67
2022/04/05 07:52:34;;;;;;;8.70;2.10;;;22.20;99.90;;;;;;5071351;28;20700;-67
2022/04/05 07:55:02;;;;;;;11.10;2.43;;;22.10;99.90;;;;;;5073775;28;20182;-67
2022/04/05 07:57:29;;;;;;;6.60;2.00;;;22.00;99.90;;;;;;5073819;28;20581;-68
2022/04/05 07:59:58;;;;;;;10.07;2.53;;;21.90;99.90;;;;;;5073667;28;20235;-67
2022/04/05 08:02:26;;;;;;;9.60;2.20;;;21.90;99.90;;;;;;5073841;28;20195;-69
2022/04/05 08:04:53;;;;;;;16.50;2.77;;;21.90;99.90;;;;;;5073552;28;20211;-69
2022/04/05 08:07:20;;;;;;;7.67;1.77;;;21.90;99.90;;;;;;5074580;28;20559;-69
2022/04/05 08:09:48;;;;;;;10.00;2.43;;;21.90;99.90;;;;;;5074158;28;20536;-70
2022/04/05 08:12:15;;;;;;;11.83;2.70;;;21.80;99.90;;;;;;5074590;28;20176;-69
2022/04/05 08:14:43;;;;;;;9.47;2.10;;;21.90;99.90;;;;;;5074582;28;20302;-69
2022/04/05 08:17:10;;;;;;;9.77;2.67;;;21.80;99.90;;;;;;5074679;28;20240;-69
2022/04/05 08:19:38;;;;;;;8.87;2.73;;;21.70;99.90;;;;;;5074698;28;20180;-69
2022/04/05 08:22:06;;;;;;;10.77;2.30;;;21.50;99.90;;;;;;5074452;28;20182;-70
2022/04/05 08:24:34;;;;;;;10.30;2.40;;;21.50;99.90;;;;;;5074601;28;20211;-68
2022/04/05 08:27:01;;;;;;;12.30;2.50;;;21.50;99.90;;;;;;5074466;28;20574;-68
2022/04/05 08:29:28;;;;;;;5.90;1.97;;;21.50;99.90;;;;;;5074163;28;20188;-68
2022/04/05 08:31:55;;;;;;;10.73;2.73;;;21.50;99.90;;;;;;5061720;28;20175;-69
2022/04/05 08:34:23;;;;;;;9.40;2.43;;;21.40;99.90;;;;;;5074268;28;20258;-70
2022/04/05 08:36:50;;;;;;;17.33;2.80;;;21.40;99.90;;;;;;5073738;28;20191;-69
2022/04/05 08:39:17;;;;;;;10.87;2.63;;;21.30;99.90;;;;;;5073870;28;20320;-70
2022/04/05 08:41:47;;;;;;;8.43;2.40;;;21.30;99.90;;;;;;5074407;28;20200;-69
2022/04/05 08:44:18;;;;;;;11.50;2.87;;;21.20;99.90;;;;;;5074319;28;20254;-69
2022/04/05 08:46:46;;;;;;;10.30;2.10;;;21.20;99.90;;;;;;5073969;28;20197;-69
2022/04/05 08:49:13;;;;;;;17.07;2.50;;;21.20;99.90;;;;;;5074147;28;20225;-69
2022/04/05 08:51:40;;;;;;;10.20;2.27;;;21.10;99.90;;;;;;5074039;28;20679;-70
2022/04/05 08:54:08;;;;;;;9.40;2.33;;;21.10;99.90;;;;;;5073744;28;20219;-69
2022/04/05 08:56:36;;;;;;;13.17;3.37;;;21.00;99.90;;;;;;5074103;28;20186;-69
2022/04/05 08:59:04;;;;;;;6.23;2.10;;;21.00;99.90;;;;;;5073690;28;20216;-69
2022/04/05 09:01:32;;;;;;;13.87;2.33;;;21.00;99.90;;;;;;5073810;28;20180;-69
2022/04/05 09:04:00;;;;;;;6.23;3.03;;;21.00;99.90;;;;;;5073857;28;20251;-69
2022/04/05 09:06:29;;;;;;;7.67;2.00;;;20.90;99.90;;;;;;5072523;28;20643;-68
2022/04/05 09:09:13;;;;;;;10.53;2.30;;;20.90;99.90;;;;;;5073706;28;20782;-69
2022/04/05 09:11:53;;;;;;;9.57;2.30;;;20.90;99.90;;;;;;5073804;28;20269;-69
2022/04/05 09:14:28;;;;;;;8.37;2.73;;;20.90;99.90;;;;;;5073086;28;20219;-69
2022/04/05 09:17:12;;;;;;;8.83;2.20;;;20.90;99.90;;;;;;5071070;28;20197;-69
2022/04/05 09:19:48;;;;;;;9.90;2.07;;;20.90;99.90;;;;;;5073910;28;20180;-70
2022/04/05 09:22:30;;;;;;;5.97;1.77;;;20.80;99.90;;;;;;5072588;28;20696;-69
2022/04/05 09:25:05;;;;;;;6.57;2.10;;;20.80;99.90;;;;;;5073680;28;20215;-69
2022/04/05 09:27:49;;;;;;;5.27;2.10;;;20.80;99.90;;;;;;5073696;28;20197;-70
2022/04/05 09:30:22;;;;;;;13.77;2.30;;;20.70;99.90;;;;;;5073539;28;20172;-69
2022/04/05 09:32:51;;;;;;;12.47;2.13;;;20.70;99.90;;;;;;5073455;28;20332;-69
2022/04/05 09:35:21;;;;;;;14.87;2.50;;;20.60;99.90;;;;;;5072007;28;20259;-69
2022/04/05 09:37:49;;;;;;;9.33;2.13;;;20.60;99.90;;;;;;5073068;28;20583;-69
2022/04/05 09:40:23;;;;;;;11.47;2.47;;;20.50;99.90;;;;;;5073575;28;20176;-69
2022/04/05 09:43:09;;;;;;;15.90;2.43;;;20.50;99.90;;;;;;5072822;28;20664;-67
2022/04/05 09:45:55;;;;;;;11.10;2.40;;;20.50;99.90;;;;;;5073211;28;20190;-70
2022/04/05 09:48:28;;;;;;;7.57;1.97;;;20.50;99.90;;;;;;5072871;28;20173;-68
2022/04/05 09:51:10;;;;;;;8.20;1.97;;;20.40;99.90;;;;;;5071964;28;20234;-69
2022/04/05 09:53:42;;;;;;;7.27;2.00;;;20.40;99.90;;;;;;5073319;28;20182;-68
2022/04/05 09:56:16;;;;;;;8.57;2.20;;;20.40;99.90;;;;;;5071826;28;20273;-69
2022/04/05 09:58:49;;;;;;;15.90;3.50;;;20.40;99.90;;;;;;5073138;28;20245;-69
2022/04/05 10:01:19;;;;;;;8.30;2.20;;;20.40;99.90;;;;;;5072975;28;20705;-69
2022/04/05 10:04:06;;;;;;;11.97;2.30;;;20.40;99.90;;;;;;5073202;28;20215;-69
2022/04/05 10:06:38;;;;;;;12.47;2.40;;;20.50;99.90;;;;;;5072999;28;20168;-69
2022/04/05 10:09:06;;;;;;;9.30;2.00;;;20.50;99.90;;;;;;5073520;28;20245;-69
2022/04/05 10:11:35;;;;;;;9.70;2.37;;;20.50;99.90;;;;;;5072982;28;20202;-69
2022/04/05 10:14:04;;;;;;;9.97;2.57;;;20.50;99.90;;;;;;5072823;28;20227;-68
2022/04/05 10:16:32;;;;;;;10.87;2.20;;;20.50;99.90;;;;;;5072500;28;20287;-68
2022/04/05 10:19:04;;;;;;;12.13;2.57;;;20.50;99.90;;;;;;5072826;28;20199;-68
2022/04/05 10:21:34;;;;;;;6.83;2.43;;;20.60;99.90;;;;;;5074427;28;20176;-69
2022/04/05 10:24:06;;;;;;;10.60;2.90;;;20.60;99.90;;;;;;5076939;28;20259;-69
2022/04/05 10:26:36;;;;;;;13.17;3.23;;;20.60;99.90;;;;;;5077178;28;20172;-70
2022/04/05 10:29:15;;;;;;;13.93;4.70;;;20.60;99.90;;;;;;5077404;28;20182;-69
2022/04/05 10:32:03;;;;;;;14.90;3.47;;;20.60;99.90;;;;;;5077190;28;20175;-69
2022/04/05 10:34:57;;;;;;;9.00;3.20;;;20.70;99.90;;;;;;5077129;28;20179;-68
2022/04/05 10:37:38;;;;;;;7.73;2.60;;;20.70;99.90;;;;;;5076721;28;20172;-69
2022/04/05 10:40:07;;;;;;;9.23;2.10;;;20.80;99.90;;;;;;5076794;28;20250;-69
2022/04/05 10:42:44;;;;;;;6.57;2.03;;;20.70;99.90;;;;;;5076878;28;20188;-68
2022/04/05 10:45:15;;;;;;;5.40;1.70;;;20.70;99.90;;;;;;5076842;28;20192;-68
2022/04/05 10:48:13;;;;;;;6.20;1.77;;;20.60;99.90;;;;;;5076939;28;20195;-68
2022/04/05 10:51:02;;;;;;;5.43;1.50;;;20.60;99.90;;;;;;5076827;28;20632;-69
2022/04/05 10:56:30;;;;;;;7.63;1.33;;;20.50;99.90;;;;;;5076533;28;20721;-68
2022/04/05 10:59:06;;;;;;;6.73;1.40;;;20.50;99.90;;;;;;5076362;28;20187;-68
2022/04/05 11:01:45;;;;;;;6.00;1.53;;;20.50;99.90;;;;;;5075534;28;20179;-68
2022/04/05 11:04:17;;;;;;;4.70;1.40;;;20.40;99.90;;;;;;5075332;28;20628;-68
2022/04/05 11:07:02;;;;;;;4.90;1.37;;;20.40;99.90;;;;;;5084765;28;20183;-68
2022/04/05 11:09:41;;;;;;;7.90;1.70;;;20.30;99.90;;;;;;5090472;28;20185;-68
2022/04/05 11:12:24;;;;;;;4.80;1.30;;;20.30;99.90;;;;;;5094711;28;20221;-68
2022/04/05 11:14:56;;;;;;;7.80;1.90;;;20.30;99.90;;;;;;5086682;28;20296;-69
2022/04/05 11:17:26;;;;;;;3.10;1.30;;;20.20;99.90;;;;;;5089934;28;20184;-68
2022/04/05 11:19:57;;;;;;;6.07;1.70;;;20.20;99.90;;;;;;5087786;28;20198;-69
2022/04/05 11:22:24;;;;;;;8.00;2.00;;;20.10;99.90;;;;;;5079766;28;20173;-69
2022/04/05 11:25:06;;;;;;;9.73;1.70;;;20.10;99.90;;;;;;5077109;28;20216;-69
2022/04/05 11:27:45;;;;;;;5.90;1.70;;;20.10;99.90;;;;;;5077365;28;20181;-69
2022/04/05 11:30:22;;;;;;;5.07;1.40;;;20.00;99.90;;;;;;5076067;28;20170;-69
2022/04/05 11:33:16;;;;;;;6.13;1.80;;;19.90;99.90;;;;;;5074468;28;20641;-69
2022/04/05 11:36:04;;;;;;;4.77;1.77;;;19.90;99.90;;;;;;5076052;28;20183;-69
2022/04/05 11:38:53;;;;;;;6.53;1.77;;;19.90;99.90;;;;;;5075040;28;20500;-68
2022/04/05 11:41:26;;;;;;;8.43;1.80;;;19.90;99.90;;;;;;5074662;28;20172;-68
2022/04/05 11:44:01;;;;;;;9.10;2.37;;;19.90;99.90;;;;;;5074733;28;20283;-69
2022/04/05 11:46:36;;;;;;;13.40;2.63;;;19.80;99.90;;;;;;5074553;28;20170;-69
2022/04/05 11:49:08;;;;;;;4.60;2.10;;;19.80;99.90;;;;;;5074680;28;20237;-69
2022/04/05 11:51:37;;;;;;;7.07;1.60;;;19.80;99.90;;;;;;5074407;28;20172;-69
2022/04/05 11:54:18;;;;;;;6.37;2.00;;;19.90;99.90;;;;;;5074491;28;20636;-69
2022/04/05 11:56:46;;;;;;;5.10;1.80;;;19.90;99.90;;;;;;5073638;28;20538;-69
2022/04/05 11:59:16;;;;;;;7.93;1.70;;;20.00;99.90;;;;;;5074201;28;20234;-70
2022/04/05 12:01:49;;;;;;;5.97;1.87;;;20.10;99.90;;;;;;5073334;28;20186;-69
2022/04/05 12:04:20;;;;;;;6.50;1.80;;;20.10;99.90;;;;;;5074503;28;20258;-69
2022/04/05 12:06:49;;;;;;;4.83;1.83;;;20.10;99.90;;;;;;5073773;28;20184;-68
2022/04/05 12:09:19;;;;;;;8.57;1.80;;;20.10;99.90;;;;;;5074307;28;20180;-69
2022/04/05 12:11:50;;;;;;;9.23;2.00;;;20.10;99.90;;;;;;5073549;28;20194;-69
2022/04/05 12:14:24;;;;;;;9.00;2.27;;;20.10;99.90;;;;;;4944789;28;3694111;-69
2022/04/05 12:17:00;;;;;;;10.20;2.30;;;20.10;99.90;;;;;;5074625;28;20268;-70
2022/04/05 12:19:29;;;;;;;6.63;1.80;;;20.10;99.90;;;;;;5075064;28;20184;-69
2022/04/05 12:22:02;;;;;;;8.87;2.10;;;20.00;99.90;;;;;;5073597;28;20188;-69
2022/04/05 12:24:31;;;;;;;7.73;2.13;;;20.00;99.90;;;;;;5074887;28;20211;-70
2022/04/05 12:26:59;;;;;;;6.97;1.90;;;20.00;99.90;;;;;;5074154;28;20542;-69
2022/04/05 12:29:31;;;;;;;3.63;2.13;;;20.00;99.90;;;;;;5073625;28;20197;-69
2022/04/05 12:32:10;;;;;;;6.37;1.73;;;20.00;99.90;;;;;;5074756;28;20270;-69
2022/04/05 12:34:38;;;;;;;8.50;2.43;;;20.00;99.90;;;;;;5074725;28;20175;-69
2022/04/05 12:37:08;;;;;;;7.50;2.10;;;20.00;99.90;;;;;;5074359;28;20681;-70
2022/04/05 12:39:43;;;;;;;5.60;1.80;;;19.90;99.90;;;;;;5074477;28;20183;-70
2022/04/05 12:42:11;;;;;;;12.47;2.43;;;19.80;99.90;;;;;;5073801;28;20204;-69
2022/04/05 12:44:41;;;;;;;5.97;1.93;;;19.80;99.90;;;;;;5072197;28;20207;-70
2022/04/05 12:47:12;;;;;;;8.93;2.67;;;19.80;99.90;;;;;;5074181;28;20179;-67
2022/04/05 12:49:49;;;;;;;8.10;2.10;;;19.70;99.90;;;;;;5074556;28;20207;-68
2022/04/05 12:52:35;;;;;;;7.90;2.10;;;19.70;99.90;;;;;;5074467;28;20265;-68
2022/04/05 12:55:21;;;;;;;10.63;2.97;;;19.70;99.90;;;;;;5074369;28;20182;-68
2022/04/05 12:57:52;;;;;;;8.30;2.30;;;19.70;99.90;;;;;;5073715;28;20553;-69
2022/04/05 13:00:21;;;;;;;7.70;2.40;;;19.70;99.90;;;;;;5074022;28;20186;-68
2022/04/05 13:02:56;;;;;;;10.83;2.50;;;19.80;99.90;;;;;;5073524;28;20177;-68